sensor_id;sensor_type;location;lat;lon;timestamp;P1;durP1;ratioP1;P2;durP2;ratioP2
39208;SDS011;24929;51.982;4.664;2022-11-20T00:00:37;10.07;;;6.93;;
39208;SDS011;24929;51.982;4.664;2022-11-20T00:03:03;17.00;;;9.93;;
39208;SDS011;24929;51.982;4.664;2022-11-20T00:05:28;19.10;;;8.75;;
39208;SDS011;24929;51.982;4.664;2022-11-20T00:07:53;10.13;;;8.25;;
39208;SDS011;24929;51.982;4.664;2022-11-20T00:10:18;12.13;;;7.88;;
39208;SDS011;24929;51.982;4.664;2022-11-20T00:12:44;10.65;;;7.90;;
39208;SDS011;24929;51.982;4.664;2022-11-20T00:15:09;10.60;;;8.68;;
39208;SDS011;24929;51.982;4.664;2022-11-20T00:17:35;12.55;;;8.85;;
39208;SDS011;24929;51.982;4.664;2022-11-20T00:20:00;18.65;;;10.60;;
39208;SDS011;24929;51.982;4.664;2022-11-20T00:22:26;11.93;;;8.38;;
39208;SDS011;24929;51.982;4.664;2022-11-20T00:24:51;18.20;;;9.52;;
39208;SDS011;24929;51.982;4.664;2022-11-20T00:27:16;12.90;;;8.18;;
39208;SDS011;24929;51.982;4.664;2022-11-20T00:29:42;13.30;;;8.65;;
39208;SDS011;24929;51.982;4.664;2022-11-20T00:32:07;12.73;;;8.20;;
39208;SDS011;24929;51.982;4.664;2022-11-20T00:34:32;16.60;;;9.43;;
39208;SDS011;24929;51.982;4.664;2022-11-20T00:36:57;11.95;;;8.02;;
39208;SDS011;24929;51.982;4.664;2022-11-20T00:39:23;12.00;;;8.27;;
39208;SDS011;24929;51.982;4.664;2022-11-20T00:41:48;23.60;;;10.20;;
39208;SDS011;24929;51.982;4.664;2022-11-20T00:44:14;16.08;;;10.40;;
39208;SDS011;24929;51.982;4.664;2022-11-20T00:46:39;11.27;;;7.50;;
39208;SDS011;24929;51.982;4.664;2022-11-20T00:49:04;15.65;;;9.40;;
39208;SDS011;24929;51.982;4.664;2022-11-20T00:51:29;15.20;;;9.02;;
39208;SDS011;24929;51.982;4.664;2022-11-20T00:53:56;10.77;;;7.43;;
39208;SDS011;24929;51.982;4.664;2022-11-20T00:56:22;14.50;;;10.20;;
39208;SDS011;24929;51.982;4.664;2022-11-20T00:58:48;11.98;;;7.90;;
39208;SDS011;24929;51.982;4.664;2022-11-20T01:01:15;15.52;;;9.05;;
39208;SDS011;24929;51.982;4.664;2022-11-20T01:03:46;11.35;;;8.75;;
39208;SDS011;24929;51.982;4.664;2022-11-20T01:08:42;13.20;;;8.75;;
39208;SDS011;24929;51.982;4.664;2022-11-20T01:11:10;12.05;;;7.68;;
39208;SDS011;24929;51.982;4.664;2022-11-20T01:13:37;14.50;;;8.02;;
39208;SDS011;24929;51.982;4.664;2022-11-20T01:18:39;12.23;;;8.55;;
39208;SDS011;24929;51.982;4.664;2022-11-20T01:21:08;13.85;;;9.13;;
39208;SDS011;24929;51.982;4.664;2022-11-20T01:23:37;13.43;;;8.30;;
39208;SDS011;24929;51.982;4.664;2022-11-20T01:26:05;12.63;;;8.50;;
39208;SDS011;24929;51.982;4.664;2022-11-20T01:28:33;14.73;;;8.43;;
39208;SDS011;24929;51.982;4.664;2022-11-20T01:30:58;13.90;;;8.73;;
39208;SDS011;24929;51.982;4.664;2022-11-20T01:33:24;8.25;;;6.65;;
39208;SDS011;24929;51.982;4.664;2022-11-20T01:35:50;12.75;;;8.73;;
39208;SDS011;24929;51.982;4.664;2022-11-20T01:38:16;14.05;;;9.68;;
39208;SDS011;24929;51.982;4.664;2022-11-20T01:40:44;12.20;;;8.60;;
39208;SDS011;24929;51.982;4.664;2022-11-20T01:43:19;9.77;;;6.82;;
39208;SDS011;24929;51.982;4.664;2022-11-20T01:51:16;12.07;;;8.27;;
39208;SDS011;24929;51.982;4.664;2022-11-20T01:53:46;9.57;;;6.72;;
39208;SDS011;24929;51.982;4.664;2022-11-20T01:56:13;12.02;;;8.55;;
39208;SDS011;24929;51.982;4.664;2022-11-20T01:58:41;13.68;;;8.88;;
39208;SDS011;24929;51.982;4.664;2022-11-20T02:01:11;10.75;;;8.45;;
39208;SDS011;24929;51.982;4.664;2022-11-20T02:03:38;13.05;;;7.93;;
39208;SDS011;24929;51.982;4.664;2022-11-20T02:06:07;10.30;;;8.35;;
39208;SDS011;24929;51.982;4.664;2022-11-20T02:08:37;14.60;;;7.80;;
39208;SDS011;24929;51.982;4.664;2022-11-20T02:11:03;12.90;;;9.02;;
39208;SDS011;24929;51.982;4.664;2022-11-20T02:13:28;11.65;;;7.93;;
39208;SDS011;24929;51.982;4.664;2022-11-20T02:16:24;12.80;;;8.10;;
39208;SDS011;24929;51.982;4.664;2022-11-20T02:18:53;10.15;;;7.63;;
39208;SDS011;24929;51.982;4.664;2022-11-20T02:21:56;8.55;;;6.72;;
39208;SDS011;24929;51.982;4.664;2022-11-20T02:24:21;10.73;;;6.78;;
39208;SDS011;24929;51.982;4.664;2022-11-20T02:26:51;12.07;;;8.23;;
39208;SDS011;24929;51.982;4.664;2022-11-20T02:29:43;9.52;;;7.47;;
39208;SDS011;24929;51.982;4.664;2022-11-20T02:34:45;10.95;;;7.88;;
39208;SDS011;24929;51.982;4.664;2022-11-20T02:37:10;9.63;;;7.50;;
39208;SDS011;24929;51.982;4.664;2022-11-20T02:39:36;14.25;;;9.05;;
39208;SDS011;24929;51.982;4.664;2022-11-20T02:42:01;11.57;;;7.15;;
39208;SDS011;24929;51.982;4.664;2022-11-20T02:44:27;13.93;;;8.25;;
39208;SDS011;24929;51.982;4.664;2022-11-20T02:46:52;15.00;;;7.47;;
39208;SDS011;24929;51.982;4.664;2022-11-20T02:49:18;11.75;;;7.63;;
39208;SDS011;24929;51.982;4.664;2022-11-20T02:51:43;11.02;;;8.18;;
39208;SDS011;24929;51.982;4.664;2022-11-20T02:54:09;14.05;;;8.93;;
39208;SDS011;24929;51.982;4.664;2022-11-20T02:56:34;13.27;;;8.18;;
39208;SDS011;24929;51.982;4.664;2022-11-20T02:59:02;9.60;;;7.95;;
39208;SDS011;24929;51.982;4.664;2022-11-20T03:01:27;9.88;;;8.05;;
39208;SDS011;24929;51.982;4.664;2022-11-20T03:03:53;11.65;;;7.93;;
39208;SDS011;24929;51.982;4.664;2022-11-20T03:06:19;11.60;;;8.32;;
39208;SDS011;24929;51.982;4.664;2022-11-20T03:08:45;12.77;;;8.27;;
39208;SDS011;24929;51.982;4.664;2022-11-20T03:11:10;15.48;;;9.52;;
39208;SDS011;24929;51.982;4.664;2022-11-20T03:13:35;12.25;;;9.32;;
39208;SDS011;24929;51.982;4.664;2022-11-20T03:16:20;10.32;;;8.32;;
39208;SDS011;24929;51.982;4.664;2022-11-20T03:18:47;16.15;;;7.68;;
39208;SDS011;24929;51.982;4.664;2022-11-20T03:21:14;11.85;;;7.82;;
39208;SDS011;24929;51.982;4.664;2022-11-20T03:23:40;12.80;;;9.20;;
39208;SDS011;24929;51.982;4.664;2022-11-20T03:26:12;11.13;;;8.40;;
39208;SDS011;24929;51.982;4.664;2022-11-20T03:28:50;12.48;;;9.02;;
39208;SDS011;24929;51.982;4.664;2022-11-20T03:31:18;10.13;;;8.20;;
39208;SDS011;24929;51.982;4.664;2022-11-20T03:33:45;11.10;;;7.43;;
39208;SDS011;24929;51.982;4.664;2022-11-20T03:36:12;11.98;;;8.68;;
39208;SDS011;24929;51.982;4.664;2022-11-20T03:38:39;11.45;;;8.93;;
39208;SDS011;24929;51.982;4.664;2022-11-20T03:41:09;13.15;;;9.82;;
39208;SDS011;24929;51.982;4.664;2022-11-20T03:43:36;13.65;;;8.80;;
39208;SDS011;24929;51.982;4.664;2022-11-20T03:46:02;15.73;;;8.93;;
39208;SDS011;24929;51.982;4.664;2022-11-20T03:48:27;14.20;;;9.48;;
39208;SDS011;24929;51.982;4.664;2022-11-20T03:50:53;11.30;;;8.27;;
39208;SDS011;24929;51.982;4.664;2022-11-20T03:53:34;10.77;;;7.95;;
39208;SDS011;24929;51.982;4.664;2022-11-20T03:56:00;10.65;;;7.85;;
39208;SDS011;24929;51.982;4.664;2022-11-20T03:58:25;12.93;;;9.25;;
39208;SDS011;24929;51.982;4.664;2022-11-20T04:00:50;19.60;;;10.48;;
39208;SDS011;24929;51.982;4.664;2022-11-20T04:03:16;12.23;;;7.65;;
39208;SDS011;24929;51.982;4.664;2022-11-20T04:05:41;10.50;;;8.20;;
39208;SDS011;24929;51.982;4.664;2022-11-20T04:08:06;12.88;;;8.48;;
39208;SDS011;24929;51.982;4.664;2022-11-20T04:10:32;9.85;;;8.18;;
39208;SDS011;24929;51.982;4.664;2022-11-20T04:12:57;13.70;;;8.75;;
39208;SDS011;24929;51.982;4.664;2022-11-20T04:15:22;11.70;;;9.32;;
39208;SDS011;24929;51.982;4.664;2022-11-20T04:17:48;15.02;;;7.88;;
39208;SDS011;24929;51.982;4.664;2022-11-20T04:20:13;9.63;;;7.85;;
39208;SDS011;24929;51.982;4.664;2022-11-20T04:22:39;12.98;;;8.07;;
39208;SDS011;24929;51.982;4.664;2022-11-20T04:25:04;11.55;;;7.00;;
39208;SDS011;24929;51.982;4.664;2022-11-20T04:27:30;12.30;;;8.98;;
39208;SDS011;24929;51.982;4.664;2022-11-20T04:29:56;10.73;;;8.45;;
39208;SDS011;24929;51.982;4.664;2022-11-20T04:32:21;13.13;;;8.40;;
39208;SDS011;24929;51.982;4.664;2022-11-20T04:34:46;11.75;;;8.85;;
39208;SDS011;24929;51.982;4.664;2022-11-20T04:37:12;12.50;;;8.55;;
39208;SDS011;24929;51.982;4.664;2022-11-20T04:39:37;11.70;;;8.18;;
39208;SDS011;24929;51.982;4.664;2022-11-20T04:42:02;12.48;;;9.02;;
39208;SDS011;24929;51.982;4.664;2022-11-20T04:44:46;13.20;;;8.60;;
39208;SDS011;24929;51.982;4.664;2022-11-20T04:47:11;11.77;;;8.25;;
39208;SDS011;24929;51.982;4.664;2022-11-20T04:49:37;12.63;;;7.72;;
39208;SDS011;24929;51.982;4.664;2022-11-20T04:52:02;10.65;;;8.73;;
39208;SDS011;24929;51.982;4.664;2022-11-20T04:54:27;15.48;;;9.88;;
39208;SDS011;24929;51.982;4.664;2022-11-20T04:56:53;14.13;;;9.10;;
39208;SDS011;24929;51.982;4.664;2022-11-20T04:59:18;11.23;;;8.93;;
39208;SDS011;24929;51.982;4.664;2022-11-20T05:01:44;15.30;;;9.63;;
39208;SDS011;24929;51.982;4.664;2022-11-20T05:04:09;14.27;;;9.25;;
39208;SDS011;24929;51.982;4.664;2022-11-20T05:06:34;14.35;;;8.68;;
39208;SDS011;24929;51.982;4.664;2022-11-20T05:09:00;12.13;;;8.02;;
39208;SDS011;24929;51.982;4.664;2022-11-20T05:11:26;12.93;;;7.70;;
39208;SDS011;24929;51.982;4.664;2022-11-20T05:13:54;13.93;;;9.30;;
39208;SDS011;24929;51.982;4.664;2022-11-20T05:16:20;11.30;;;8.70;;
39208;SDS011;24929;51.982;4.664;2022-11-20T05:18:47;10.68;;;7.05;;
39208;SDS011;24929;51.982;4.664;2022-11-20T05:21:13;11.68;;;9.23;;
39208;SDS011;24929;51.982;4.664;2022-11-20T05:23:39;11.60;;;8.57;;
39208;SDS011;24929;51.982;4.664;2022-11-20T05:26:06;11.57;;;7.93;;
39208;SDS011;24929;51.982;4.664;2022-11-20T05:28:33;14.27;;;8.90;;
39208;SDS011;24929;51.982;4.664;2022-11-20T05:31:09;13.90;;;10.20;;
39208;SDS011;24929;51.982;4.664;2022-11-20T05:33:39;13.85;;;7.72;;
39208;SDS011;24929;51.982;4.664;2022-11-20T05:36:05;13.10;;;9.23;;
39208;SDS011;24929;51.982;4.664;2022-11-20T05:38:31;12.65;;;7.57;;
39208;SDS011;24929;51.982;4.664;2022-11-20T05:41:10;11.52;;;8.15;;
39208;SDS011;24929;51.982;4.664;2022-11-20T05:43:40;17.00;;;8.55;;
39208;SDS011;24929;51.982;4.664;2022-11-20T05:46:08;12.05;;;9.30;;
39208;SDS011;24929;51.982;4.664;2022-11-20T05:48:35;12.90;;;10.23;;
39208;SDS011;24929;51.982;4.664;2022-11-20T05:51:02;16.23;;;9.48;;
39208;SDS011;24929;51.982;4.664;2022-11-20T05:53:28;11.13;;;8.10;;
39208;SDS011;24929;51.982;4.664;2022-11-20T05:55:57;12.25;;;8.70;;
39208;SDS011;24929;51.982;4.664;2022-11-20T05:58:23;10.52;;;7.70;;
39208;SDS011;24929;51.982;4.664;2022-11-20T06:00:48;16.05;;;8.15;;
39208;SDS011;24929;51.982;4.664;2022-11-20T06:03:13;12.82;;;9.45;;
39208;SDS011;24929;51.982;4.664;2022-11-20T06:05:39;13.43;;;8.10;;
39208;SDS011;24929;51.982;4.664;2022-11-20T06:08:04;11.00;;;8.85;;
39208;SDS011;24929;51.982;4.664;2022-11-20T06:10:29;14.13;;;9.45;;
39208;SDS011;24929;51.982;4.664;2022-11-20T06:12:57;12.32;;;9.20;;
39208;SDS011;24929;51.982;4.664;2022-11-20T06:15:22;13.65;;;9.77;;
39208;SDS011;24929;51.982;4.664;2022-11-20T06:17:51;12.93;;;8.20;;
39208;SDS011;24929;51.982;4.664;2022-11-20T06:20:17;16.27;;;9.02;;
39208;SDS011;24929;51.982;4.664;2022-11-20T06:22:42;12.45;;;9.68;;
39208;SDS011;24929;51.982;4.664;2022-11-20T06:25:08;11.52;;;8.75;;
39208;SDS011;24929;51.982;4.664;2022-11-20T06:27:33;12.05;;;9.27;;
39208;SDS011;24929;51.982;4.664;2022-11-20T06:40:39;15.00;;;8.38;;
39208;SDS011;24929;51.982;4.664;2022-11-20T06:43:06;9.35;;;7.85;;
39208;SDS011;24929;51.982;4.664;2022-11-20T06:45:31;14.98;;;10.05;;
39208;SDS011;24929;51.982;4.664;2022-11-20T06:47:57;12.80;;;9.30;;
39208;SDS011;24929;51.982;4.664;2022-11-20T06:50:23;12.25;;;9.18;;
39208;SDS011;24929;51.982;4.664;2022-11-20T06:52:48;17.48;;;10.98;;
39208;SDS011;24929;51.982;4.664;2022-11-20T06:55:14;18.02;;;10.95;;
39208;SDS011;24929;51.982;4.664;2022-11-20T06:57:39;10.38;;;9.07;;
39208;SDS011;24929;51.982;4.664;2022-11-20T07:00:05;16.42;;;10.23;;
39208;SDS011;24929;51.982;4.664;2022-11-20T07:02:31;18.33;;;10.52;;
39208;SDS011;24929;51.982;4.664;2022-11-20T07:04:56;9.65;;;8.52;;
39208;SDS011;24929;51.982;4.664;2022-11-20T07:07:21;16.60;;;10.88;;
39208;SDS011;24929;51.982;4.664;2022-11-20T07:09:47;19.00;;;11.65;;
39208;SDS011;24929;51.982;4.664;2022-11-20T07:12:12;17.17;;;10.73;;
39208;SDS011;24929;51.982;4.664;2022-11-20T07:14:38;19.63;;;10.85;;
39208;SDS011;24929;51.982;4.664;2022-11-20T07:17:03;15.82;;;12.48;;
39208;SDS011;24929;51.982;4.664;2022-11-20T07:19:28;11.65;;;9.18;;
39208;SDS011;24929;51.982;4.664;2022-11-20T07:21:54;15.43;;;11.05;;
39208;SDS011;24929;51.982;4.664;2022-11-20T07:24:19;14.00;;;10.85;;
39208;SDS011;24929;51.982;4.664;2022-11-20T07:26:47;20.85;;;10.70;;
39208;SDS011;24929;51.982;4.664;2022-11-20T07:29:14;14.00;;;10.23;;
39208;SDS011;24929;51.982;4.664;2022-11-20T07:31:40;14.55;;;10.57;;
39208;SDS011;24929;51.982;4.664;2022-11-20T07:34:06;17.65;;;10.73;;
39208;SDS011;24929;51.982;4.664;2022-11-20T07:36:31;15.95;;;11.82;;
39208;SDS011;24929;51.982;4.664;2022-11-20T07:38:56;17.05;;;10.75;;
39208;SDS011;24929;51.982;4.664;2022-11-20T07:41:22;14.15;;;10.82;;
39208;SDS011;24929;51.982;4.664;2022-11-20T07:43:47;23.80;;;11.88;;
39208;SDS011;24929;51.982;4.664;2022-11-20T07:49:34;12.80;;;9.45;;
39208;SDS011;24929;51.982;4.664;2022-11-20T07:52:00;16.70;;;11.85;;
39208;SDS011;24929;51.982;4.664;2022-11-20T07:54:25;21.10;;;11.82;;
39208;SDS011;24929;51.982;4.664;2022-11-20T07:56:50;17.52;;;12.43;;
39208;SDS011;24929;51.982;4.664;2022-11-20T07:59:16;18.20;;;11.77;;
39208;SDS011;24929;51.982;4.664;2022-11-20T08:01:41;18.98;;;10.95;;
39208;SDS011;24929;51.982;4.664;2022-11-20T08:04:10;14.88;;;10.65;;
39208;SDS011;24929;51.982;4.664;2022-11-20T08:06:36;15.93;;;11.50;;
39208;SDS011;24929;51.982;4.664;2022-11-20T08:09:02;21.40;;;13.45;;
39208;SDS011;24929;51.982;4.664;2022-11-20T08:11:28;18.00;;;12.13;;
39208;SDS011;24929;51.982;4.664;2022-11-20T08:14:11;19.80;;;12.02;;
39208;SDS011;24929;51.982;4.664;2022-11-20T08:16:44;14.38;;;11.23;;
39208;SDS011;24929;51.982;4.664;2022-11-20T08:19:12;14.77;;;11.52;;
39208;SDS011;24929;51.982;4.664;2022-11-20T08:21:39;13.95;;;10.73;;
39208;SDS011;24929;51.982;4.664;2022-11-20T08:24:05;15.35;;;11.90;;
39208;SDS011;24929;51.982;4.664;2022-11-20T08:26:31;19.48;;;11.45;;
39208;SDS011;24929;51.982;4.664;2022-11-20T08:28:56;14.85;;;12.23;;
39208;SDS011;24929;51.982;4.664;2022-11-20T08:31:23;18.27;;;10.80;;
39208;SDS011;24929;51.982;4.664;2022-11-20T08:33:50;17.70;;;12.43;;
39208;SDS011;24929;51.982;4.664;2022-11-20T08:36:16;16.60;;;12.35;;
39208;SDS011;24929;51.982;4.664;2022-11-20T08:38:41;18.67;;;13.18;;
39208;SDS011;24929;51.982;4.664;2022-11-20T08:41:07;14.25;;;11.95;;
39208;SDS011;24929;51.982;4.664;2022-11-20T08:43:55;18.15;;;12.77;;
39208;SDS011;24929;51.982;4.664;2022-11-20T08:46:25;19.38;;;13.98;;
39208;SDS011;24929;51.982;4.664;2022-11-20T08:48:52;22.08;;;13.85;;
39208;SDS011;24929;51.982;4.664;2022-11-20T08:51:18;22.58;;;15.30;;
39208;SDS011;24929;51.982;4.664;2022-11-20T08:53:44;25.10;;;14.80;;
39208;SDS011;24929;51.982;4.664;2022-11-20T08:56:10;17.08;;;12.57;;
39208;SDS011;24929;51.982;4.664;2022-11-20T08:58:37;22.20;;;15.88;;
39208;SDS011;24929;51.982;4.664;2022-11-20T09:01:03;19.95;;;14.55;;
39208;SDS011;24929;51.982;4.664;2022-11-20T09:03:28;23.20;;;13.75;;
39208;SDS011;24929;51.982;4.664;2022-11-20T09:06:01;18.60;;;13.23;;
39208;SDS011;24929;51.982;4.664;2022-11-20T09:08:28;19.92;;;13.18;;
39208;SDS011;24929;51.982;4.664;2022-11-20T09:10:54;15.93;;;11.82;;
39208;SDS011;24929;51.982;4.664;2022-11-20T09:13:22;26.95;;;14.00;;
39208;SDS011;24929;51.982;4.664;2022-11-20T09:15:54;17.33;;;12.93;;
39208;SDS011;24929;51.982;4.664;2022-11-20T09:18:21;20.33;;;14.40;;
39208;SDS011;24929;51.982;4.664;2022-11-20T09:20:47;12.25;;;8.77;;
39208;SDS011;24929;51.982;4.664;2022-11-20T09:23:13;24.52;;;13.88;;
39208;SDS011;24929;51.982;4.664;2022-11-20T09:25:38;17.70;;;13.27;;
39208;SDS011;24929;51.982;4.664;2022-11-20T09:28:03;21.35;;;14.05;;
39208;SDS011;24929;51.982;4.664;2022-11-20T09:30:29;19.33;;;12.45;;
39208;SDS011;24929;51.982;4.664;2022-11-20T09:32:55;19.50;;;14.35;;
39208;SDS011;24929;51.982;4.664;2022-11-20T09:35:21;21.75;;;14.70;;
39208;SDS011;24929;51.982;4.664;2022-11-20T09:37:46;18.75;;;14.25;;
39208;SDS011;24929;51.982;4.664;2022-11-20T09:42:45;18.63;;;14.80;;
39208;SDS011;24929;51.982;4.664;2022-11-20T09:54:29;24.40;;;14.15;;
39208;SDS011;24929;51.982;4.664;2022-11-20T09:59:42;12.18;;;9.77;;
39208;SDS011;24929;51.982;4.664;2022-11-20T10:04:53;21.63;;;14.30;;
39208;SDS011;24929;51.982;4.664;2022-11-20T10:10:32;24.33;;;13.38;;
39208;SDS011;24929;51.982;4.664;2022-11-20T10:30:03;20.52;;;13.23;;
39208;SDS011;24929;51.982;4.664;2022-11-20T10:32:39;21.17;;;14.98;;
39208;SDS011;24929;51.982;4.664;2022-11-20T10:38:37;24.38;;;15.15;;
39208;SDS011;24929;51.982;4.664;2022-11-20T10:41:06;27.50;;;17.55;;
39208;SDS011;24929;51.982;4.664;2022-11-20T10:44:00;21.40;;;15.35;;
39208;SDS011;24929;51.982;4.664;2022-11-20T10:46:33;25.63;;;17.17;;
39208;SDS011;24929;51.982;4.664;2022-11-20T10:49:04;27.45;;;15.73;;
39208;SDS011;24929;51.982;4.664;2022-11-20T10:57:11;28.17;;;16.20;;
39208;SDS011;24929;51.982;4.664;2022-11-20T11:00:04;20.58;;;14.68;;
39208;SDS011;24929;51.982;4.664;2022-11-20T11:02:33;21.88;;;15.63;;
39208;SDS011;24929;51.982;4.664;2022-11-20T11:05:14;21.20;;;16.77;;
39208;SDS011;24929;51.982;4.664;2022-11-20T11:08:02;21.85;;;16.48;;
39208;SDS011;24929;51.982;4.664;2022-11-20T11:10:42;23.00;;;17.88;;
39208;SDS011;24929;51.982;4.664;2022-11-20T11:13:22;18.50;;;15.27;;
39208;SDS011;24929;51.982;4.664;2022-11-20T11:15:53;16.70;;;13.23;;
39208;SDS011;24929;51.982;4.664;2022-11-20T11:18:37;28.08;;;19.67;;
39208;SDS011;24929;51.982;4.664;2022-11-20T11:21:03;24.35;;;15.70;;
39208;SDS011;24929;51.982;4.664;2022-11-20T11:26:04;22.15;;;16.48;;
39208;SDS011;24929;51.982;4.664;2022-11-20T11:28:31;25.23;;;19.10;;
39208;SDS011;24929;51.982;4.664;2022-11-20T11:30:56;21.73;;;15.88;;
39208;SDS011;24929;51.982;4.664;2022-11-20T11:33:26;22.70;;;16.38;;
39208;SDS011;24929;51.982;4.664;2022-11-20T11:40:57;20.08;;;16.70;;
39208;SDS011;24929;51.982;4.664;2022-11-20T11:43:24;24.75;;;18.95;;
39208;SDS011;24929;51.982;4.664;2022-11-20T11:49:01;24.65;;;17.05;;
39208;SDS011;24929;51.982;4.664;2022-11-20T11:54:37;21.92;;;14.07;;
39208;SDS011;24929;51.982;4.664;2022-11-20T11:57:14;26.02;;;18.38;;
39208;SDS011;24929;51.982;4.664;2022-11-20T12:00:31;26.50;;;17.80;;
39208;SDS011;24929;51.982;4.664;2022-11-20T12:16:19;28.80;;;19.52;;
39208;SDS011;24929;51.982;4.664;2022-11-20T12:18:45;27.10;;;19.85;;
39208;SDS011;24929;51.982;4.664;2022-11-20T12:29:24;31.95;;;20.30;;
39208;SDS011;24929;51.982;4.664;2022-11-20T12:43:29;30.08;;;20.60;;
39208;SDS011;24929;51.982;4.664;2022-11-20T13:02:50;34.33;;;21.23;;
39208;SDS011;24929;51.982;4.664;2022-11-20T13:05:29;34.20;;;21.88;;
39208;SDS011;24929;51.982;4.664;2022-11-20T13:08:02;41.80;;;23.23;;
39208;SDS011;24929;51.982;4.664;2022-11-20T13:13:12;24.25;;;17.67;;
39208;SDS011;24929;51.982;4.664;2022-11-20T13:18:28;38.03;;;24.67;;
39208;SDS011;24929;51.982;4.664;2022-11-20T13:21:01;26.30;;;17.05;;
39208;SDS011;24929;51.982;4.664;2022-11-20T13:23:27;40.20;;;23.80;;
39208;SDS011;24929;51.982;4.664;2022-11-20T13:28:41;44.22;;;23.35;;
39208;SDS011;24929;51.982;4.664;2022-11-20T13:31:23;35.58;;;23.27;;
39208;SDS011;24929;51.982;4.664;2022-11-20T13:33:56;43.78;;;23.98;;
39208;SDS011;24929;51.982;4.664;2022-11-20T13:36:26;39.92;;;23.40;;
39208;SDS011;24929;51.982;4.664;2022-11-20T13:38:53;38.85;;;23.85;;
39208;SDS011;24929;51.982;4.664;2022-11-20T13:41:27;43.88;;;25.20;;
39208;SDS011;24929;51.982;4.664;2022-11-20T13:46:36;38.92;;;21.80;;
39208;SDS011;24929;51.982;4.664;2022-11-20T13:49:06;32.53;;;22.00;;
39208;SDS011;24929;51.982;4.664;2022-11-20T13:51:40;39.03;;;23.70;;
39208;SDS011;24929;51.982;4.664;2022-11-20T14:01:50;41.63;;;25.02;;
39208;SDS011;24929;51.982;4.664;2022-11-20T14:04:17;40.92;;;23.65;;
39208;SDS011;24929;51.982;4.664;2022-11-20T14:06:50;41.65;;;24.08;;
39208;SDS011;24929;51.982;4.664;2022-11-20T14:09:26;35.75;;;24.40;;
39208;SDS011;24929;51.982;4.664;2022-11-20T14:11:55;41.92;;;25.52;;
39208;SDS011;24929;51.982;4.664;2022-11-20T14:14:28;46.05;;;25.70;;
39208;SDS011;24929;51.982;4.664;2022-11-20T14:17:08;36.88;;;24.42;;
39208;SDS011;24929;51.982;4.664;2022-11-20T14:19:43;46.20;;;26.00;;
39208;SDS011;24929;51.982;4.664;2022-11-20T14:24:46;36.85;;;23.70;;
39208;SDS011;24929;51.982;4.664;2022-11-20T14:27:14;42.35;;;24.27;;
39208;SDS011;24929;51.982;4.664;2022-11-20T14:29:42;42.80;;;24.60;;
39208;SDS011;24929;51.982;4.664;2022-11-20T14:32:09;41.97;;;24.92;;
39208;SDS011;24929;51.982;4.664;2022-11-20T14:34:37;44.20;;;25.63;;
39208;SDS011;24929;51.982;4.664;2022-11-20T14:37:17;42.08;;;24.48;;
39208;SDS011;24929;51.982;4.664;2022-11-20T14:39:53;40.35;;;25.52;;
39208;SDS011;24929;51.982;4.664;2022-11-20T14:42:24;45.53;;;25.92;;
39208;SDS011;24929;51.982;4.664;2022-11-20T14:44:51;36.92;;;22.77;;
39208;SDS011;24929;51.982;4.664;2022-11-20T14:47:21;44.25;;;25.30;;
39208;SDS011;24929;51.982;4.664;2022-11-20T14:49:50;44.17;;;24.45;;
39208;SDS011;24929;51.982;4.664;2022-11-20T14:54:49;45.72;;;25.50;;
39208;SDS011;24929;51.982;4.664;2022-11-20T14:57:20;40.00;;;25.33;;
39208;SDS011;24929;51.982;4.664;2022-11-20T14:59:51;46.70;;;27.92;;
39208;SDS011;24929;51.982;4.664;2022-11-20T15:02:16;44.90;;;25.05;;
39208;SDS011;24929;51.982;4.664;2022-11-20T15:07:24;43.30;;;24.38;;
39208;SDS011;24929;51.982;4.664;2022-11-20T15:10:03;40.55;;;25.58;;
39208;SDS011;24929;51.982;4.664;2022-11-20T15:12:32;40.15;;;25.25;;
39208;SDS011;24929;51.982;4.664;2022-11-20T15:15:00;45.60;;;26.88;;
39208;SDS011;24929;51.982;4.664;2022-11-20T15:17:26;38.70;;;27.58;;
39208;SDS011;24929;51.982;4.664;2022-11-20T15:19:52;41.75;;;27.30;;
39208;SDS011;24929;51.982;4.664;2022-11-20T15:22:19;44.35;;;27.67;;
39208;SDS011;24929;51.982;4.664;2022-11-20T15:24:44;40.33;;;24.35;;
39208;SDS011;24929;51.982;4.664;2022-11-20T15:27:10;44.22;;;28.27;;
39208;SDS011;24929;51.982;4.664;2022-11-20T15:29:36;39.00;;;22.23;;
39208;SDS011;24929;51.982;4.664;2022-11-20T15:32:01;40.58;;;27.42;;
39208;SDS011;24929;51.982;4.664;2022-11-20T15:34:27;42.58;;;26.45;;
39208;SDS011;24929;51.982;4.664;2022-11-20T15:36:53;43.80;;;27.25;;
39208;SDS011;24929;51.982;4.664;2022-11-20T15:39:19;39.38;;;24.50;;
39208;SDS011;24929;51.982;4.664;2022-11-20T15:41:45;39.95;;;25.80;;
39208;SDS011;24929;51.982;4.664;2022-11-20T15:44:10;51.35;;;26.95;;
39208;SDS011;24929;51.982;4.664;2022-11-20T15:46:36;41.22;;;25.27;;
39208;SDS011;24929;51.982;4.664;2022-11-20T15:49:05;37.78;;;26.13;;
39208;SDS011;24929;51.982;4.664;2022-11-20T15:51:34;41.40;;;25.75;;
39208;SDS011;24929;51.982;4.664;2022-11-20T15:54:08;38.70;;;23.40;;
39208;SDS011;24929;51.982;4.664;2022-11-20T15:56:38;39.47;;;23.42;;
39208;SDS011;24929;51.982;4.664;2022-11-20T15:59:04;41.90;;;24.92;;
39208;SDS011;24929;51.982;4.664;2022-11-20T16:01:29;43.15;;;24.30;;
39208;SDS011;24929;51.982;4.664;2022-11-20T16:03:55;46.60;;;26.95;;
39208;SDS011;24929;51.982;4.664;2022-11-20T16:06:20;35.67;;;21.95;;
39208;SDS011;24929;51.982;4.664;2022-11-20T16:08:46;35.10;;;22.05;;
39208;SDS011;24929;51.982;4.664;2022-11-20T16:11:12;35.42;;;23.67;;
39208;SDS011;24929;51.982;4.664;2022-11-20T16:13:38;42.33;;;26.42;;
39208;SDS011;24929;51.982;4.664;2022-11-20T16:16:23;42.13;;;27.60;;
39208;SDS011;24929;51.982;4.664;2022-11-20T16:21:57;43.80;;;27.23;;
39208;SDS011;24929;51.982;4.664;2022-11-20T16:24:22;34.45;;;25.35;;
39208;SDS011;24929;51.982;4.664;2022-11-20T16:26:48;39.85;;;25.73;;
39208;SDS011;24929;51.982;4.664;2022-11-20T16:29:13;33.78;;;23.20;;
39208;SDS011;24929;51.982;4.664;2022-11-20T16:31:43;42.08;;;26.08;;
39208;SDS011;24929;51.982;4.664;2022-11-20T16:34:20;34.22;;;25.02;;
39208;SDS011;24929;51.982;4.664;2022-11-20T16:36:45;38.22;;;25.17;;
39208;SDS011;24929;51.982;4.664;2022-11-20T16:39:11;39.90;;;25.27;;
39208;SDS011;24929;51.982;4.664;2022-11-20T16:41:37;43.88;;;26.20;;
39208;SDS011;24929;51.982;4.664;2022-11-20T16:44:06;39.70;;;23.92;;
39208;SDS011;24929;51.982;4.664;2022-11-20T16:46:33;39.50;;;25.05;;
39208;SDS011;24929;51.982;4.664;2022-11-20T16:48:59;38.40;;;24.25;;
39208;SDS011;24929;51.982;4.664;2022-11-20T16:51:27;42.30;;;27.15;;
39208;SDS011;24929;51.982;4.664;2022-11-20T16:53:55;43.50;;;25.17;;
39208;SDS011;24929;51.982;4.664;2022-11-20T16:56:22;41.78;;;25.17;;
39208;SDS011;24929;51.982;4.664;2022-11-20T16:58:49;34.38;;;24.20;;
39208;SDS011;24929;51.982;4.664;2022-11-20T17:01:19;30.65;;;21.83;;
39208;SDS011;24929;51.982;4.664;2022-11-20T17:04:22;35.47;;;23.85;;
39208;SDS011;24929;51.982;4.664;2022-11-20T17:06:41;36.15;;;22.70;;
39208;SDS011;24929;51.982;4.664;2022-11-20T17:09:11;40.20;;;23.42;;
39208;SDS011;24929;51.982;4.664;2022-11-20T17:11:37;36.42;;;23.85;;
39208;SDS011;24929;51.982;4.664;2022-11-20T17:14:04;32.60;;;21.15;;
39208;SDS011;24929;51.982;4.664;2022-11-20T17:16:33;29.60;;;22.73;;
39208;SDS011;24929;51.982;4.664;2022-11-20T17:19:00;32.80;;;19.90;;
39208;SDS011;24929;51.982;4.664;2022-11-20T17:21:25;34.33;;;22.33;;